sensor_id;sensor_type;location;lat;lon;timestamp;temperature;humidity
32977;DHT22;47687;50.842;4.450;2022-09-09T00:02:08;14.50;99.90
32977;DHT22;47687;50.842;4.450;2022-09-09T00:04:37;14.60;99.90
32977;DHT22;47687;50.842;4.450;2022-09-09T00:21:13;14.60;99.90
32977;DHT22;47687;50.842;4.450;2022-09-09T00:23:51;14.50;99.90
32977;DHT22;47687;50.842;4.450;2022-09-09T00:26:42;14.50;99.90
32977;DHT22;47687;50.842;4.450;2022-09-09T00:31:45;14.50;99.90
32977;DHT22;47687;50.842;4.450;2022-09-09T00:34:18;14.60;99.90
32977;DHT22;47687;50.842;4.450;2022-09-09T00:36:45;14.50;99.90
32977;DHT22;47687;50.842;4.450;2022-09-09T00:39:37;14.60;99.90
32977;DHT22;47687;50.842;4.450;2022-09-09T00:42:24;14.60;99.90
32977;DHT22;47687;50.842;4.450;2022-09-09T00:47:51;14.70;99.90
32977;DHT22;47687;50.842;4.450;2022-09-09T00:58:26;14.80;99.90
32977;DHT22;47687;50.842;4.450;2022-09-09T01:11:29;14.90;99.90
32977;DHT22;47687;50.842;4.450;2022-09-09T01:16:43;14.90;99.90
32977;DHT22;47687;50.842;4.450;2022-09-09T01:19:20;15.00;99.90
32977;DHT22;47687;50.842;4.450;2022-09-09T01:22:03;14.90;99.90
32977;DHT22;47687;50.842;4.450;2022-09-09T01:24:47;14.90;99.90
32977;DHT22;47687;50.842;4.450;2022-09-09T01:27:20;14.90;99.90
32977;DHT22;47687;50.842;4.450;2022-09-09T01:29:47;15.00;99.90
32977;DHT22;47687;50.842;4.450;2022-09-09T01:32:39;15.00;99.90
32977;DHT22;47687;50.842;4.450;2022-09-09T01:35:32;14.90;99.90
32977;DHT22;47687;50.842;4.450;2022-09-09T01:37:55;14.90;99.90
32977;DHT22;47687;50.842;4.450;2022-09-09T01:40:21;14.80;99.90
32977;DHT22;47687;50.842;4.450;2022-09-09T01:42:47;14.80;99.90
32977;DHT22;47687;50.842;4.450;2022-09-09T01:45:14;14.80;99.90
32977;DHT22;47687;50.842;4.450;2022-09-09T01:47:43;14.70;99.90
32977;DHT22;47687;50.842;4.450;2022-09-09T01:50:12;14.70;99.90
32977;DHT22;47687;50.842;4.450;2022-09-09T01:52:40;14.70;99.90
32977;DHT22;47687;50.842;4.450;2022-09-09T01:55:09;14.60;99.90
32977;DHT22;47687;50.842;4.450;2022-09-09T02:00:13;14.60;99.90
32977;DHT22;47687;50.842;4.450;2022-09-09T02:03:14;14.50;99.90
32977;DHT22;47687;50.842;4.450;2022-09-09T02:05:36;14.60;99.90
32977;DHT22;47687;50.842;4.450;2022-09-09T02:08:11;14.50;99.90
32977;DHT22;47687;50.842;4.450;2022-09-09T02:10:50;14.50;99.90
32977;DHT22;47687;50.842;4.450;2022-09-09T02:13:21;14.50;99.90
32977;DHT22;47687;50.842;4.450;2022-09-09T02:18:21;14.40;99.90
32977;DHT22;47687;50.842;4.450;2022-09-09T02:20:50;14.50;99.90
32977;DHT22;47687;50.842;4.450;2022-09-09T02:23:17;14.40;99.90
32977;DHT22;47687;50.842;4.450;2022-09-09T02:25:44;14.40;99.90
32977;DHT22;47687;50.842;4.450;2022-09-09T02:28:13;14.40;99.90
32977;DHT22;47687;50.842;4.450;2022-09-09T02:30:41;14.40;99.90
32977;DHT22;47687;50.842;4.450;2022-09-09T02:33:08;14.40;99.90
32977;DHT22;47687;50.842;4.450;2022-09-09T02:35:36;14.40;99.90
32977;DHT22;47687;50.842;4.450;2022-09-09T02:38:06;14.40;99.90
32977;DHT22;47687;50.842;4.450;2022-09-09T02:40:33;14.40;99.90
32977;DHT22;47687;50.842;4.450;2022-09-09T02:42:59;14.30;99.90
32977;DHT22;47687;50.842;4.450;2022-09-09T02:45:29;14.40;99.90
32977;DHT22;47687;50.842;4.450;2022-09-09T02:48:17;14.30;99.90
32977;DHT22;47687;50.842;4.450;2022-09-09T02:50:59;14.40;99.90
32977;DHT22;47687;50.842;4.450;2022-09-09T02:56:17;14.40;99.90
32977;DHT22;47687;50.842;4.450;2022-09-09T02:58:45;14.40;99.90
32977;DHT22;47687;50.842;4.450;2022-09-09T03:01:11;14.40;99.90
32977;DHT22;47687;50.842;4.450;2022-09-09T03:03:37;14.40;99.90
32977;DHT22;47687;50.842;4.450;2022-09-09T03:06:03;14.40;99.90
32977;DHT22;47687;50.842;4.450;2022-09-09T03:08:31;14.40;99.90
32977;DHT22;47687;50.842;4.450;2022-09-09T03:10:58;14.40;99.90
32977;DHT22;47687;50.842;4.450;2022-09-09T03:13:26;14.40;99.90
32977;DHT22;47687;50.842;4.450;2022-09-09T03:15:52;14.40;99.90
32977;DHT22;47687;50.842;4.450;2022-09-09T03:18:18;14.40;99.90
32977;DHT22;47687;50.842;4.450;2022-09-09T03:20:43;14.40;99.90
32977;DHT22;47687;50.842;4.450;2022-09-09T03:23:09;14.40;99.90
32977;DHT22;47687;50.842;4.450;2022-09-09T03:25:34;14.50;99.90
32977;DHT22;47687;50.842;4.450;2022-09-09T03:28:01;14.50;99.90
32977;DHT22;47687;50.842;4.450;2022-09-09T03:30:27;14.40;99.90
32977;DHT22;47687;50.842;4.450;2022-09-09T03:32:53;14.50;99.90
32977;DHT22;47687;50.842;4.450;2022-09-09T03:35:20;14.50;99.90
32977;DHT22;47687;50.842;4.450;2022-09-09T03:37:46;14.40;99.90
32977;DHT22;47687;50.842;4.450;2022-09-09T03:40:12;14.50;99.90
32977;DHT22;47687;50.842;4.450;2022-09-09T03:42:39;14.40;99.90
32977;DHT22;47687;50.842;4.450;2022-09-09T03:45:07;14.40;99.90
32977;DHT22;47687;50.842;4.450;2022-09-09T03:47:34;14.40;99.90
32977;DHT22;47687;50.842;4.450;2022-09-09T03:49:59;14.50;99.90
32977;DHT22;47687;50.842;4.450;2022-09-09T03:52:25;14.50;99.90
32977;DHT22;47687;50.842;4.450;2022-09-09T03:54:52;14.60;99.90
32977;DHT22;47687;50.842;4.450;2022-09-09T03:57:18;14.40;99.90
32977;DHT22;47687;50.842;4.450;2022-09-09T03:59:44;14.40;99.90
32977;DHT22;47687;50.842;4.450;2022-09-09T04:02:10;14.50;99.90
32977;DHT22;47687;50.842;4.450;2022-09-09T04:04:36;14.40;99.90
32977;DHT22;47687;50.842;4.450;2022-09-09T04:07:02;14.40;99.90
32977;DHT22;47687;50.842;4.450;2022-09-09T04:09:27;14.40;99.90
32977;DHT22;47687;50.842;4.450;2022-09-09T04:11:53;14.50;99.90
32977;DHT22;47687;50.842;4.450;2022-09-09T04:14:20;14.60;99.90
32977;DHT22;47687;50.842;4.450;2022-09-09T04:16:45;14.60;99.90
32977;DHT22;47687;50.842;4.450;2022-09-09T04:19:12;14.70;99.90
32977;DHT22;47687;50.842;4.450;2022-09-09T04:21:40;14.70;99.90
32977;DHT22;47687;50.842;4.450;2022-09-09T04:24:07;14.90;99.90
32977;DHT22;47687;50.842;4.450;2022-09-09T04:26:33;14.70;99.90
32977;DHT22;47687;50.842;4.450;2022-09-09T04:28:58;14.70;99.90
32977;DHT22;47687;50.842;4.450;2022-09-09T04:31:24;14.60;99.90
32977;DHT22;47687;50.842;4.450;2022-09-09T04:33:50;14.50;99.90
32977;DHT22;47687;50.842;4.450;2022-09-09T04:36:16;14.50;99.90
32977;DHT22;47687;50.842;4.450;2022-09-09T04:38:43;14.40;99.90
32977;DHT22;47687;50.842;4.450;2022-09-09T04:41:10;14.50;99.90
32977;DHT22;47687;50.842;4.450;2022-09-09T04:43:37;14.40;99.90
32977;DHT22;47687;50.842;4.450;2022-09-09T04:46:03;14.40;99.90
32977;DHT22;47687;50.842;4.450;2022-09-09T04:48:29;14.40;99.90
32977;DHT22;47687;50.842;4.450;2022-09-09T04:51:13;14.40;99.90
32977;DHT22;47687;50.842;4.450;2022-09-09T04:53:39;14.40;99.90
32977;DHT22;47687;50.842;4.450;2022-09-09T04:56:12;14.40;99.90
32977;DHT22;47687;50.842;4.450;2022-09-09T04:58:39;14.40;99.90
32977;DHT22;47687;50.842;4.450;2022-09-09T05:03:33;14.40;99.90
32977;DHT22;47687;50.842;4.450;2022-09-09T05:06:07;14.50;99.90
32977;DHT22;47687;50.842;4.450;2022-09-09T05:08:34;14.40;99.90
32977;DHT22;47687;50.842;4.450;2022-09-09T05:10:59;14.50;99.90
32977;DHT22;47687;50.842;4.450;2022-09-09T05:13:26;14.40;99.90
32977;DHT22;47687;50.842;4.450;2022-09-09T05:15:53;14.40;99.90
32977;DHT22;47687;50.842;4.450;2022-09-09T05:18:19;14.40;99.90
32977;DHT22;47687;50.842;4.450;2022-09-09T05:20:44;14.40;99.90
32977;DHT22;47687;50.842;4.450;2022-09-09T05:23:10;14.50;99.90
32977;DHT22;47687;50.842;4.450;2022-09-09T05:25:37;14.50;99.90
32977;DHT22;47687;50.842;4.450;2022-09-09T05:28:03;14.60;99.90
32977;DHT22;47687;50.842;4.450;2022-09-09T05:30:28;14.70;99.90
32977;DHT22;47687;50.842;4.450;2022-09-09T05:32:56;14.80;99.90
32977;DHT22;47687;50.842;4.450;2022-09-09T05:35:22;14.80;99.90
32977;DHT22;47687;50.842;4.450;2022-09-09T05:37:48;14.90;99.90
32977;DHT22;47687;50.842;4.450;2022-09-09T05:40:14;15.00;99.90
32977;DHT22;47687;50.842;4.450;2022-09-09T05:42:40;15.00;99.90
32977;DHT22;47687;50.842;4.450;2022-09-09T05:45:07;15.10;99.90
32977;DHT22;47687;50.842;4.450;2022-09-09T05:47:34;15.10;99.90
32977;DHT22;47687;50.842;4.450;2022-09-09T05:50:04;15.20;99.90
32977;DHT22;47687;50.842;4.450;2022-09-09T05:52:30;15.20;99.90
32977;DHT22;47687;50.842;4.450;2022-09-09T05:54:55;15.10;99.90
32977;DHT22;47687;50.842;4.450;2022-09-09T05:57:22;15.20;99.90
32977;DHT22;47687;50.842;4.450;2022-09-09T05:59:47;14.90;99.90
32977;DHT22;47687;50.842;4.450;2022-09-09T06:02:13;15.10;99.90
32977;DHT22;47687;50.842;4.450;2022-09-09T06:04:39;15.20;99.90
32977;DHT22;47687;50.842;4.450;2022-09-09T06:07:05;15.20;99.90
32977;DHT22;47687;50.842;4.450;2022-09-09T06:09:31;15.30;99.90
32977;DHT22;47687;50.842;4.450;2022-09-09T06:11:56;15.50;99.90
32977;DHT22;47687;50.842;4.450;2022-09-09T06:14:23;15.60;99.90
32977;DHT22;47687;50.842;4.450;2022-09-09T06:16:51;15.70;99.90
32977;DHT22;47687;50.842;4.450;2022-09-09T06:19:16;15.70;99.90
32977;DHT22;47687;50.842;4.450;2022-09-09T06:21:42;15.60;99.90
32977;DHT22;47687;50.842;4.450;2022-09-09T06:24:10;15.60;99.90
32977;DHT22;47687;50.842;4.450;2022-09-09T06:26:39;15.80;99.90
32977;DHT22;47687;50.842;4.450;2022-09-09T06:29:09;15.90;99.90
32977;DHT22;47687;50.842;4.450;2022-09-09T06:31:36;16.00;99.90
32977;DHT22;47687;50.842;4.450;2022-09-09T06:34:05;15.90;99.90
32977;DHT22;47687;50.842;4.450;2022-09-09T06:36:32;16.00;99.90
32977;DHT22;47687;50.842;4.450;2022-09-09T06:38:59;16.10;99.90
32977;DHT22;47687;50.842;4.450;2022-09-09T06:41:29;16.30;99.90
32977;DHT22;47687;50.842;4.450;2022-09-09T06:43:55;16.30;99.90
32977;DHT22;47687;50.842;4.450;2022-09-09T06:46:23;16.30;99.90
32977;DHT22;47687;50.842;4.450;2022-09-09T06:48:49;16.30;99.90
32977;DHT22;47687;50.842;4.450;2022-09-09T06:51:22;16.30;99.90
32977;DHT22;47687;50.842;4.450;2022-09-09T06:53:51;16.30;99.90
32977;DHT22;47687;50.842;4.450;2022-09-09T06:56:20;16.40;99.90
32977;DHT22;47687;50.842;4.450;2022-09-09T06:58:47;16.30;99.90
32977;DHT22;47687;50.842;4.450;2022-09-09T07:01:16;16.40;99.90
32977;DHT22;47687;50.842;4.450;2022-09-09T07:03:44;16.50;99.90
32977;DHT22;47687;50.842;4.450;2022-09-09T07:06:15;16.70;99.90
32977;DHT22;47687;50.842;4.450;2022-09-09T07:08:43;16.60;99.90
32977;DHT22;47687;50.842;4.450;2022-09-09T07:11:09;16.80;99.90
32977;DHT22;47687;50.842;4.450;2022-09-09T07:13:35;17.00;99.90
32977;DHT22;47687;50.842;4.450;2022-09-09T07:16:20;17.00;99.90
32977;DHT22;47687;50.842;4.450;2022-09-09T07:18:48;17.20;99.90
32977;DHT22;47687;50.842;4.450;2022-09-09T07:21:16;17.30;99.90
32977;DHT22;47687;50.842;4.450;2022-09-09T07:23:41;17.50;99.90
32977;DHT22;47687;50.842;4.450;2022-09-09T07:26:18;17.50;99.90
32977;DHT22;47687;50.842;4.450;2022-09-09T07:28:46;17.50;99.90
32977;DHT22;47687;50.842;4.450;2022-09-09T07:31:20;17.30;99.90
32977;DHT22;47687;50.842;4.450;2022-09-09T07:33:47;17.30;99.90
32977;DHT22;47687;50.842;4.450;2022-09-09T07:36:19;17.30;99.90
32977;DHT22;47687;50.842;4.450;2022-09-09T07:38:52;17.10;99.90
32977;DHT22;47687;50.842;4.450;2022-09-09T07:41:24;17.10;99.90
32977;DHT22;47687;50.842;4.450;2022-09-09T07:43:51;17.20;99.90
32977;DHT22;47687;50.842;4.450;2022-09-09T07:46:20;17.40;99.90
32977;DHT22;47687;50.842;4.450;2022-09-09T07:48:54;17.30;99.90
32977;DHT22;47687;50.842;4.450;2022-09-09T07:51:27;17.20;99.90
32977;DHT22;47687;50.842;4.450;2022-09-09T07:53:55;17.00;99.90
32977;DHT22;47687;50.842;4.450;2022-09-09T07:56:23;16.70;99.90
32977;DHT22;47687;50.842;4.450;2022-09-09T07:58:50;16.60;99.90
32977;DHT22;47687;50.842;4.450;2022-09-09T08:01:18;16.60;99.90
32977;DHT22;47687;50.842;4.450;2022-09-09T08:03:59;16.60;99.90
32977;DHT22;47687;50.842;4.450;2022-09-09T08:06:27;16.80;99.90
32977;DHT22;47687;50.842;4.450;2022-09-09T08:08:53;17.10;99.90
32977;DHT22;47687;50.842;4.450;2022-09-09T08:11:21;17.40;99.90
32977;DHT22;47687;50.842;4.450;2022-09-09T08:13:48;17.80;99.90
32977;DHT22;47687;50.842;4.450;2022-09-09T08:16:17;18.00;99.90
32977;DHT22;47687;50.842;4.450;2022-09-09T08:18:43;18.20;99.90
32977;DHT22;47687;50.842;4.450;2022-09-09T08:21:14;18.60;99.90
32977;DHT22;47687;50.842;4.450;2022-09-09T08:23:40;18.80;99.90
32977;DHT22;47687;50.842;4.450;2022-09-09T08:26:26;18.80;99.90
32977;DHT22;47687;50.842;4.450;2022-09-09T08:28:55;18.80;99.90
32977;DHT22;47687;50.842;4.450;2022-09-09T08:33:54;19.10;99.90
32977;DHT22;47687;50.842;4.450;2022-09-09T08:36:22;19.30;99.90
32977;DHT22;47687;50.842;4.450;2022-09-09T08:38:54;19.40;99.90
32977;DHT22;47687;50.842;4.450;2022-09-09T08:53:09;19.00;99.90
32977;DHT22;47687;50.842;4.450;2022-09-09T08:55:56;19.00;99.90
32977;DHT22;47687;50.842;4.450;2022-09-09T08:58:29;18.70;99.90
32977;DHT22;47687;50.842;4.450;2022-09-09T09:06:09;19.00;99.90
32977;DHT22;47687;50.842;4.450;2022-09-09T09:08:52;19.20;99.90
32977;DHT22;47687;50.842;4.450;2022-09-09T09:11:20;19.40;99.90
32977;DHT22;47687;50.842;4.450;2022-09-09T09:16:34;19.40;99.90
32977;DHT22;47687;50.842;4.450;2022-09-09T09:19:04;19.30;99.90
32977;DHT22;47687;50.842;4.450;2022-09-09T09:21:39;19.00;99.90
32977;DHT22;47687;50.842;4.450;2022-09-09T09:24:28;18.90;99.90
32977;DHT22;47687;50.842;4.450;2022-09-09T09:27:00;18.60;99.90
32977;DHT22;47687;50.842;4.450;2022-09-09T09:29:29;18.40;99.90
32977;DHT22;47687;50.842;4.450;2022-09-09T09:31:56;18.20;99.90
32977;DHT22;47687;50.842;4.450;2022-09-09T09:34:27;18.20;99.90
32977;DHT22;47687;50.842;4.450;2022-09-09T09:36:56;18.20;99.90
32977;DHT22;47687;50.842;4.450;2022-09-09T09:39:31;18.30;99.90
32977;DHT22;47687;50.842;4.450;2022-09-09T09:41:57;18.20;99.90
32977;DHT22;47687;50.842;4.450;2022-09-09T09:44:30;18.20;99.90
32977;DHT22;47687;50.842;4.450;2022-09-09T09:47:21;18.10;99.90
32977;DHT22;47687;50.842;4.450;2022-09-09T09:53:04;18.30;99.90
32977;DHT22;47687;50.842;4.450;2022-09-09T09:55:54;18.50;99.90
32977;DHT22;47687;50.842;4.450;2022-09-09T09:58:20;18.60;99.90
32977;DHT22;47687;50.842;4.450;2022-09-09T10:00:53;18.60;99.90
32977;DHT22;47687;50.842;4.450;2022-09-09T10:03:27;18.40;99.90
32977;DHT22;47687;50.842;4.450;2022-09-09T10:05:54;18.40;99.90
32977;DHT22;47687;50.842;4.450;2022-09-09T10:08:20;18.60;99.90
32977;DHT22;47687;50.842;4.450;2022-09-09T10:17:14;18.90;99.90
32977;DHT22;47687;50.842;4.450;2022-09-09T10:20:00;19.10;99.90
32977;DHT22;47687;50.842;4.450;2022-09-09T10:22:33;19.00;99.90
32977;DHT22;47687;50.842;4.450;2022-09-09T10:30:20;18.60;99.90
32977;DHT22;47687;50.842;4.450;2022-09-09T10:33:10;18.50;99.90
32977;DHT22;47687;50.842;4.450;2022-09-09T10:35:51;18.60;99.90
32977;DHT22;47687;50.842;4.450;2022-09-09T10:38:40;18.80;99.90
32977;DHT22;47687;50.842;4.450;2022-09-09T10:52:24;20.30;99.90
32977;DHT22;47687;50.842;4.450;2022-09-09T10:55:02;20.40;99.90
32977;DHT22;47687;50.842;4.450;2022-09-09T10:57:43;20.30;99.90
32977;DHT22;47687;50.842;4.450;2022-09-09T11:02:41;21.10;99.90
32977;DHT22;47687;50.842;4.450;2022-09-09T11:05:20;21.70;99.90
32977;DHT22;47687;50.842;4.450;2022-09-09T11:08:01;22.20;99.90
32977;DHT22;47687;50.842;4.450;2022-09-09T11:10:37;22.00;99.90
32977;DHT22;47687;50.842;4.450;2022-09-09T11:13:18;22.10;99.90
32977;DHT22;47687;50.842;4.450;2022-09-09T11:15:46;22.10;99.90
32977;DHT22;47687;50.842;4.450;2022-09-09T11:18:19;21.90;99.90
32977;DHT22;47687;50.842;4.450;2022-09-09T11:20:47;22.00;99.90
32977;DHT22;47687;50.842;4.450;2022-09-09T11:23:18;22.00;99.90
32977;DHT22;47687;50.842;4.450;2022-09-09T11:25:53;21.80;99.90
32977;DHT22;47687;50.842;4.450;2022-09-09T11:28:43;21.80;99.90
32977;DHT22;47687;50.842;4.450;2022-09-09T11:34:03;21.90;99.90
32977;DHT22;47687;50.842;4.450;2022-09-09T11:42:34;21.70;99.90
32977;DHT22;47687;50.842;4.450;2022-09-09T11:45:19;21.80;99.90
32977;DHT22;47687;50.842;4.450;2022-09-09T11:48:00;21.90;99.90
32977;DHT22;47687;50.842;4.450;2022-09-09T11:50:33;21.80;99.90
32977;DHT22;47687;50.842;4.450;2022-09-09T11:53:26;21.90;99.90
32977;DHT22;47687;50.842;4.450;2022-09-09T11:56:22;21.80;99.90
32977;DHT22;47687;50.842;4.450;2022-09-09T12:02:03;22.20;99.90
32977;DHT22;47687;50.842;4.450;2022-09-09T12:05:10;22.20;99.90
32977;DHT22;47687;50.842;4.450;2022-09-09T12:07:56;22.00;99.90
32977;DHT22;47687;50.842;4.450;2022-09-09T12:10:38;21.80;99.90
32977;DHT22;47687;50.842;4.450;2022-09-09T12:13:19;21.80;99.90
32977;DHT22;47687;50.842;4.450;2022-09-09T12:15:49;21.60;99.90
32977;DHT22;47687;50.842;4.450;2022-09-09T12:18:35;21.60;99.90
32977;DHT22;47687;50.842;4.450;2022-09-09T12:21:11;21.60;99.90
32977;DHT22;47687;50.842;4.450;2022-09-09T12:23:52;21.50;99.90
32977;DHT22;47687;50.842;4.450;2022-09-09T12:26:34;21.40;99.90
32977;DHT22;47687;50.842;4.450;2022-09-09T12:34:44;21.10;99.90
32977;DHT22;47687;50.842;4.450;2022-09-09T12:37:15;21.30;99.90
32977;DHT22;47687;50.842;4.450;2022-09-09T12:39:49;21.50;99.90
32977;DHT22;47687;50.842;4.450;2022-09-09T12:42:20;21.70;99.90
32977;DHT22;47687;50.842;4.450;2022-09-09T12:44:58;21.90;99.90
32977;DHT22;47687;50.842;4.450;2022-09-09T12:49:52;22.20;99.90
32977;DHT22;47687;50.842;4.450;2022-09-09T12:52:36;22.50;99.90
32977;DHT22;47687;50.842;4.450;2022-09-09T12:55:05;23.00;99.90
32977;DHT22;47687;50.842;4.450;2022-09-09T12:57:36;23.40;99.90
32977;DHT22;47687;50.842;4.450;2022-09-09T13:00:25;23.60;99.90
32977;DHT22;47687;50.842;4.450;2022-09-09T13:03:00;23.70;99.90
32977;DHT22;47687;50.842;4.450;2022-09-09T13:05:37;23.60;99.90
32977;DHT22;47687;50.842;4.450;2022-09-09T13:08:15;23.50;99.90
32977;DHT22;47687;50.842;4.450;2022-09-09T13:11:06;23.30;99.90
32977;DHT22;47687;50.842;4.450;2022-09-09T13:13:38;23.30;99.90
32977;DHT22;47687;50.842;4.450;2022-09-09T13:16:06;23.20;99.90
32977;DHT22;47687;50.842;4.450;2022-09-09T13:18:35;23.10;99.90
32977;DHT22;47687;50.842;4.450;2022-09-09T13:21:03;23.00;99.90
32977;DHT22;47687;50.842;4.450;2022-09-09T13:23:37;22.80;99.90
32977;DHT22;47687;50.842;4.450;2022-09-09T13:26:24;22.70;99.90
32977;DHT22;47687;50.842;4.450;2022-09-09T13:28:50;22.40;99.90
32977;DHT22;47687;50.842;4.450;2022-09-09T13:31:33;22.30;99.90
32977;DHT22;47687;50.842;4.450;2022-09-09T13:34:11;22.40;99.90
32977;DHT22;47687;50.842;4.450;2022-09-09T13:36:38;22.70;99.90
32977;DHT22;47687;50.842;4.450;2022-09-09T13:39:05;22.80;99.90
32977;DHT22;47687;50.842;4.450;2022-09-09T13:41:32;22.70;99.90
32977;DHT22;47687;50.842;4.450;2022-09-09T13:43:58;23.20;99.90
32977;DHT22;47687;50.842;4.450;2022-09-09T13:46:39;23.20;99.90
32977;DHT22;47687;50.842;4.450;2022-09-09T13:51:42;23.10;99.90
32977;DHT22;47687;50.842;4.450;2022-09-09T13:54:10;23.10;99.90
32977;DHT22;47687;50.842;4.450;2022-09-09T13:56:37;23.30;99.90
32977;DHT22;47687;50.842;4.450;2022-09-09T13:59:04;23.50;99.90
32977;DHT22;47687;50.842;4.450;2022-09-09T14:01:30;23.80;99.90
32977;DHT22;47687;50.842;4.450;2022-09-09T14:03:56;24.10;99.90
32977;DHT22;47687;50.842;4.450;2022-09-09T14:06:22;23.90;99.90
32977;DHT22;47687;50.842;4.450;2022-09-09T14:08:51;23.80;99.90
32977;DHT22;47687;50.842;4.450;2022-09-09T14:11:18;23.70;99.90
32977;DHT22;47687;50.842;4.450;2022-09-09T14:13:43;23.60;99.90
32977;DHT22;47687;50.842;4.450;2022-09-09T14:16:09;23.60;99.90
32977;DHT22;47687;50.842;4.450;2022-09-09T14:18:35;23.80;99.90
32977;DHT22;47687;50.842;4.450;2022-09-09T14:21:01;23.60;99.90
32977;DHT22;47687;50.842;4.450;2022-09-09T14:23:27;23.60;99.90
32977;DHT22;47687;50.842;4.450;2022-09-09T14:25:54;23.50;99.90
32977;DHT22;47687;50.842;4.450;2022-09-09T14:28:20;23.20;99.90
32977;DHT22;47687;50.842;4.450;2022-09-09T14:30:46;22.80;99.90
32977;DHT22;47687;50.842;4.450;2022-09-09T14:33:14;22.60;99.90
32977;DHT22;47687;50.842;4.450;2022-09-09T14:35:40;22.50;99.90
32977;DHT22;47687;50.842;4.450;2022-09-09T14:38:07;22.70;99.90
32977;DHT22;47687;50.842;4.450;2022-09-09T14:40:34;22.70;99.90
32977;DHT22;47687;50.842;4.450;2022-09-09T14:43:00;22.80;99.90
32977;DHT22;47687;50.842;4.450;2022-09-09T14:45:26;23.00;99.90
32977;DHT22;47687;50.842;4.450;2022-09-09T14:47:52;23.10;99.90
32977;DHT22;47687;50.842;4.450;2022-09-09T14:50:19;22.90;99.90
32977;DHT22;47687;50.842;4.450;2022-09-09T14:52:45;22.70;99.90
32977;DHT22;47687;50.842;4.450;2022-09-09T14:55:10;22.70;99.90
32977;DHT22;47687;50.842;4.450;2022-09-09T14:57:37;22.70;99.90
32977;DHT22;47687;50.842;4.450;2022-09-09T15:00:04;22.60;99.90
32977;DHT22;47687;50.842;4.450;2022-09-09T15:02:30;22.50;99.90
32977;DHT22;47687;50.842;4.450;2022-09-09T15:04:56;22.50;99.90
32977;DHT22;47687;50.842;4.450;2022-09-09T15:07:25;22.60;99.90
32977;DHT22;47687;50.842;4.450;2022-09-09T15:09:52;22.50;99.90
32977;DHT22;47687;50.842;4.450;2022-09-09T15:12:18;22.40;99.90
32977;DHT22;47687;50.842;4.450;2022-09-09T15:14:44;22.50;99.90
32977;DHT22;47687;50.842;4.450;2022-09-09T15:17:11;22.70;99.90
32977;DHT22;47687;50.842;4.450;2022-09-09T15:19:37;22.80;99.90
32977;DHT22;47687;50.842;4.450;2022-09-09T15:22:04;22.80;99.90
32977;DHT22;47687;50.842;4.450;2022-09-09T15:24:31;22.80;99.90
32977;DHT22;47687;50.842;4.450;2022-09-09T15:26:58;22.90;99.90
32977;DHT22;47687;50.842;4.450;2022-09-09T15:29:24;22.80;99.90
32977;DHT22;47687;50.842;4.450;2022-09-09T15:31:49;22.90;99.90
32977;DHT22;47687;50.842;4.450;2022-09-09T15:34:15;22.80;99.90
32977;DHT22;47687;50.842;4.450;2022-09-09T15:36:42;22.50;99.90
32977;DHT22;47687;50.842;4.450;2022-09-09T15:39:13;22.30;99.90
32977;DHT22;47687;50.842;4.450;2022-09-09T15:41:45;22.20;99.90
32977;DHT22;47687;50.842;4.450;2022-09-09T15:44:12;22.20;99.90
32977;DHT22;47687;50.842;4.450;2022-09-09T15:46:42;22.10;99.90
32977;DHT22;47687;50.842;4.450;2022-09-09T15:51:41;22.10;99.90
32977;DHT22;47687;50.842;4.450;2022-09-09T15:54:08;22.10;99.90
32977;DHT22;47687;50.842;4.450;2022-09-09T15:56:34;22.20;99.90
32977;DHT22;47687;50.842;4.450;2022-09-09T15:59:01;22.20;99.90
32977;DHT22;47687;50.842;4.450;2022-09-09T16:01:29;22.20;99.90
32977;DHT22;47687;50.842;4.450;2022-09-09T16:03:56;22.10;99.90
32977;DHT22;47687;50.842;4.450;2022-09-09T16:06:24;22.00;99.90
32977;DHT22;47687;50.842;4.450;2022-09-09T16:08:52;22.00;99.90
32977;DHT22;47687;50.842;4.450;2022-09-09T16:11:37;22.00;99.90
32977;DHT22;47687;50.842;4.450;2022-09-09T16:14:04;21.90;99.90
32977;DHT22;47687;50.842;4.450;2022-09-09T16:16:30;21.70;99.90
32977;DHT22;47687;50.842;4.450;2022-09-09T16:19:02;21.40;99.90
32977;DHT22;47687;50.842;4.450;2022-09-09T16:21:33;21.30;99.90
32977;DHT22;47687;50.842;4.450;2022-09-09T16:24:01;21.30;99.90
32977;DHT22;47687;50.842;4.450;2022-09-09T16:26:32;21.30;99.90
32977;DHT22;47687;50.842;4.450;2022-09-09T16:28:59;21.10;99.90
32977;DHT22;47687;50.842;4.450;2022-09-09T16:31:26;21.10;99.90
32977;DHT22;47687;50.842;4.450;2022-09-09T16:33:52;21.10;99.90
32977;DHT22;47687;50.842;4.450;2022-09-09T16:36:20;20.90;99.90
32977;DHT22;47687;50.842;4.450;2022-09-09T16:38:46;20.60;99.90
32977;DHT22;47687;50.842;4.450;2022-09-09T16:41:13;20.20;99.90
32977;DHT22;47687;50.842;4.450;2022-09-09T16:43:40;20.00;99.90
32977;DHT22;47687;50.842;4.450;2022-09-09T16:46:17;19.80;99.90
32977;DHT22;47687;50.842;4.450;2022-09-09T16:48:44;19.80;99.90
32977;DHT22;47687;50.842;4.450;2022-09-09T16:51:22;19.80;99.90
32977;DHT22;47687;50.842;4.450;2022-09-09T16:53:50;19.80;99.90
32977;DHT22;47687;50.842;4.450;2022-09-09T16:56:18;19.90;99.90
32977;DHT22;47687;50.842;4.450;2022-09-09T16:58:49;20.20;99.90
32977;DHT22;47687;50.842;4.450;2022-09-09T17:01:15;20.40;99.90
32977;DHT22;47687;50.842;4.450;2022-09-09T17:03:41;20.60;99.90
32977;DHT22;47687;50.842;4.450;2022-09-09T17:06:10;20.70;99.90
32977;DHT22;47687;50.842;4.450;2022-09-09T17:08:35;20.80;99.90
32977;DHT22;47687;50.842;4.450;2022-09-09T17:11:01;20.80;99.90
32977;DHT22;47687;50.842;4.450;2022-09-09T17:13:27;20.80;99.90
32977;DHT22;47687;50.842;4.450;2022-09-09T17:15:52;20.60;99.90
32977;DHT22;47687;50.842;4.450;2022-09-09T17:18:18;20.50;99.90
32977;DHT22;47687;50.842;4.450;2022-09-09T17:20:43;20.40;99.90
32977;DHT22;47687;50.842;4.450;2022-09-09T17:23:10;20.40;99.90
32977;DHT22;47687;50.842;4.450;2022-09-09T17:25:37;20.30;99.90
32977;DHT22;47687;50.842;4.450;2022-09-09T17:28:03;20.20;99.90
32977;DHT22;47687;50.842;4.450;2022-09-09T17:30:38;20.10;99.90
32977;DHT22;47687;50.842;4.450;2022-09-09T17:33:04;19.90;99.90
32977;DHT22;47687;50.842;4.450;2022-09-09T17:35:32;19.70;99.90
32977;DHT22;47687;50.842;4.450;2022-09-09T17:37:58;19.50;99.90
32977;DHT22;47687;50.842;4.450;2022-09-09T17:40:24;19.50;99.90
32977;DHT22;47687;50.842;4.450;2022-09-09T17:42:49;19.30;99.90
32977;DHT22;47687;50.842;4.450;2022-09-09T17:45:15;19.10;99.90
32977;DHT22;47687;50.842;4.450;2022-09-09T17:47:41;19.00;99.90
32977;DHT22;47687;50.842;4.450;2022-09-09T17:50:10;18.90;99.90
32977;DHT22;47687;50.842;4.450;2022-09-09T17:52:39;18.80;99.90
32977;DHT22;47687;50.842;4.450;2022-09-09T17:55:06;18.60;99.90
32977;DHT22;47687;50.842;4.450;2022-09-09T17:57:32;18.50;99.90